sensor_id;sensor_type;location;lat;lon;timestamp;temperature;humidity
19536;HTU21D;9913;51.168;4.124;2023-10-31T00:00:30;10.65;115.74
19536;HTU21D;9913;51.168;4.124;2023-10-31T00:02:59;10.62;115.68
19536;HTU21D;9913;51.168;4.124;2023-10-31T00:05:28;10.64;115.89
19536;HTU21D;9913;51.168;4.124;2023-10-31T00:07:56;10.63;116.14
19536;HTU21D;9913;51.168;4.124;2023-10-31T00:10:25;10.72;115.73
19536;HTU21D;9913;51.168;4.124;2023-10-31T00:12:53;10.71;115.88
19536;HTU21D;9913;51.168;4.124;2023-10-31T00:15:21;10.69;115.72
19536;HTU21D;9913;51.168;4.124;2023-10-31T00:17:51;10.73;115.67
19536;HTU21D;9913;51.168;4.124;2023-10-31T00:20:21;10.72;115.55
19536;HTU21D;9913;51.168;4.124;2023-10-31T00:22:49;10.68;115.24
19536;HTU21D;9913;51.168;4.124;2023-10-31T00:25:18;10.72;115.43
19536;HTU21D;9913;51.168;4.124;2023-10-31T00:27:46;10.67;115.32
19536;HTU21D;9913;51.168;4.124;2023-10-31T00:30:15;10.73;115.78
19536;HTU21D;9913;51.168;4.124;2023-10-31T00:32:43;10.73;115.63
19536;HTU21D;9913;51.168;4.124;2023-10-31T00:35:12;10.71;115.48
19536;HTU21D;9913;51.168;4.124;2023-10-31T00:37:42;10.68;115.42
19536;HTU21D;9913;51.168;4.124;2023-10-31T00:40:11;10.74;115.37
19536;HTU21D;9913;51.168;4.124;2023-10-31T00:42:41;10.71;115.22
19536;HTU21D;9913;51.168;4.124;2023-10-31T00:45:10;10.73;114.94
19536;HTU21D;9913;51.168;4.124;2023-10-31T00:47:39;10.70;114.71
19536;HTU21D;9913;51.168;4.124;2023-10-31T00:50:08;10.67;114.41
19536;HTU21D;9913;51.168;4.124;2023-10-31T00:52:37;10.69;114.54
19536;HTU21D;9913;51.168;4.124;2023-10-31T00:55:07;10.66;114.44
19536;HTU21D;9913;51.168;4.124;2023-10-31T00:57:35;10.70;114.43
19536;HTU21D;9913;51.168;4.124;2023-10-31T01:00:06;10.69;114.14
19536;HTU21D;9913;51.168;4.124;2023-10-31T01:02:35;10.71;113.83
19536;HTU21D;9913;51.168;4.124;2023-10-31T01:05:04;10.73;113.79
19536;HTU21D;9913;51.168;4.124;2023-10-31T01:07:33;10.75;113.85
19536;HTU21D;9913;51.168;4.124;2023-10-31T01:10:02;10.69;113.89
19536;HTU21D;9913;51.168;4.124;2023-10-31T01:12:31;10.75;114.07
19536;HTU21D;9913;51.168;4.124;2023-10-31T01:15:01;10.73;113.68
19536;HTU21D;9913;51.168;4.124;2023-10-31T01:17:30;10.72;113.74
19536;HTU21D;9913;51.168;4.124;2023-10-31T01:19:58;10.74;113.96
19536;HTU21D;9913;51.168;4.124;2023-10-31T01:22:26;10.72;113.94
19536;HTU21D;9913;51.168;4.124;2023-10-31T01:24:55;10.71;114.44
19536;HTU21D;9913;51.168;4.124;2023-10-31T01:27:23;10.58;114.74
19536;HTU21D;9913;51.168;4.124;2023-10-31T01:29:53;10.59;114.95
19536;HTU21D;9913;51.168;4.124;2023-10-31T01:32:21;10.57;115.02
19536;HTU21D;9913;51.168;4.124;2023-10-31T01:34:50;10.64;115.15
19536;HTU21D;9913;51.168;4.124;2023-10-31T01:37:19;10.67;115.30
19536;HTU21D;9913;51.168;4.124;2023-10-31T01:39:48;10.62;115.56
19536;HTU21D;9913;51.168;4.124;2023-10-31T01:42:17;10.59;115.81
19536;HTU21D;9913;51.168;4.124;2023-10-31T01:44:45;10.65;116.28
19536;HTU21D;9913;51.168;4.124;2023-10-31T01:47:15;10.68;116.51
19536;HTU21D;9913;51.168;4.124;2023-10-31T01:49:43;10.62;116.46
19536;HTU21D;9913;51.168;4.124;2023-10-31T01:52:12;10.67;116.33
19536;HTU21D;9913;51.168;4.124;2023-10-31T01:54:40;10.68;116.17
19536;HTU21D;9913;51.168;4.124;2023-10-31T01:57:08;10.65;116.17
19536;HTU21D;9913;51.168;4.124;2023-10-31T01:59:37;10.67;115.91
19536;HTU21D;9913;51.168;4.124;2023-10-31T02:02:06;10.68;115.95
19536;HTU21D;9913;51.168;4.124;2023-10-31T02:04:36;10.66;115.73
19536;HTU21D;9913;51.168;4.124;2023-10-31T02:07:04;10.57;115.19
19536;HTU21D;9913;51.168;4.124;2023-10-31T02:09:33;10.57;115.18
19536;HTU21D;9913;51.168;4.124;2023-10-31T02:12:01;10.59;115.32
19536;HTU21D;9913;51.168;4.124;2023-10-31T02:14:29;10.52;115.26
19536;HTU21D;9913;51.168;4.124;2023-10-31T02:16:58;10.50;115.12
19536;HTU21D;9913;51.168;4.124;2023-10-31T02:19:26;10.44;114.85
19536;HTU21D;9913;51.168;4.124;2023-10-31T02:21:56;10.49;114.75
19536;HTU21D;9913;51.168;4.124;2023-10-31T02:24:24;10.41;114.30
19536;HTU21D;9913;51.168;4.124;2023-10-31T02:26:53;10.31;114.10
19536;HTU21D;9913;51.168;4.124;2023-10-31T02:29:21;10.33;114.38
19536;HTU21D;9913;51.168;4.124;2023-10-31T02:31:49;10.31;114.35
19536;HTU21D;9913;51.168;4.124;2023-10-31T02:34:18;10.26;113.87
19536;HTU21D;9913;51.168;4.124;2023-10-31T02:36:46;10.25;113.73
19536;HTU21D;9913;51.168;4.124;2023-10-31T02:39:16;10.24;113.61
19536;HTU21D;9913;51.168;4.124;2023-10-31T02:41:45;10.18;113.26
19536;HTU21D;9913;51.168;4.124;2023-10-31T02:44:14;10.13;113.12
19536;HTU21D;9913;51.168;4.124;2023-10-31T02:46:42;10.15;113.29
19536;HTU21D;9913;51.168;4.124;2023-10-31T02:49:11;10.19;113.17
19536;HTU21D;9913;51.168;4.124;2023-10-31T02:51:39;10.14;112.81
19536;HTU21D;9913;51.168;4.124;2023-10-31T02:54:07;10.16;112.88
19536;HTU21D;9913;51.168;4.124;2023-10-31T02:56:37;10.04;112.79
19536;HTU21D;9913;51.168;4.124;2023-10-31T02:59:06;10.06;113.20
19536;HTU21D;9913;51.168;4.124;2023-10-31T03:01:35;10.01;113.26
19536;HTU21D;9913;51.168;4.124;2023-10-31T03:04:04;10.04;113.44
19536;HTU21D;9913;51.168;4.124;2023-10-31T03:06:32;10.09;113.58
19536;HTU21D;9913;51.168;4.124;2023-10-31T03:09:00;9.97;113.38
19536;HTU21D;9913;51.168;4.124;2023-10-31T03:11:28;10.04;113.06
19536;HTU21D;9913;51.168;4.124;2023-10-31T03:13:58;9.99;112.97
19536;HTU21D;9913;51.168;4.124;2023-10-31T03:16:27;9.96;113.15
19536;HTU21D;9913;51.168;4.124;2023-10-31T03:18:56;9.95;113.14
19536;HTU21D;9913;51.168;4.124;2023-10-31T03:21:24;9.89;113.07
19536;HTU21D;9913;51.168;4.124;2023-10-31T03:23:52;9.86;112.99
19536;HTU21D;9913;51.168;4.124;2023-10-31T03:26:22;9.86;112.93
19536;HTU21D;9913;51.168;4.124;2023-10-31T03:28:51;9.86;112.71
19536;HTU21D;9913;51.168;4.124;2023-10-31T03:31:25;9.91;112.62
19536;HTU21D;9913;51.168;4.124;2023-10-31T03:33:54;9.86;112.17
19536;HTU21D;9913;51.168;4.124;2023-10-31T03:36:22;9.83;112.03
19536;HTU21D;9913;51.168;4.124;2023-10-31T03:38:50;9.83;111.78
19536;HTU21D;9913;51.168;4.124;2023-10-31T03:41:19;9.81;111.67
19536;HTU21D;9913;51.168;4.124;2023-10-31T03:43:50;9.88;111.68
19536;HTU21D;9913;51.168;4.124;2023-10-31T03:46:18;9.89;111.79
19536;HTU21D;9913;51.168;4.124;2023-10-31T03:48:48;9.86;111.64
19536;HTU21D;9913;51.168;4.124;2023-10-31T03:51:16;9.85;111.59
19536;HTU21D;9913;51.168;4.124;2023-10-31T03:53:45;9.82;111.72
19536;HTU21D;9913;51.168;4.124;2023-10-31T03:56:13;9.85;111.49
19536;HTU21D;9913;51.168;4.124;2023-10-31T03:58:42;9.82;111.52
19536;HTU21D;9913;51.168;4.124;2023-10-31T04:01:11;9.81;111.30
19536;HTU21D;9913;51.168;4.124;2023-10-31T04:03:39;9.83;111.31
19536;HTU21D;9913;51.168;4.124;2023-10-31T04:06:09;9.79;111.35
19536;HTU21D;9913;51.168;4.124;2023-10-31T04:08:37;9.75;111.11
19536;HTU21D;9913;51.168;4.124;2023-10-31T04:11:05;9.79;111.87
19536;HTU21D;9913;51.168;4.124;2023-10-31T04:13:34;9.81;112.06
19536;HTU21D;9913;51.168;4.124;2023-10-31T04:16:02;9.80;111.86
19536;HTU21D;9913;51.168;4.124;2023-10-31T04:18:31;9.80;111.52
19536;HTU21D;9913;51.168;4.124;2023-10-31T04:20:59;9.89;111.56
19536;HTU21D;9913;51.168;4.124;2023-10-31T04:23:28;9.83;111.59
19536;HTU21D;9913;51.168;4.124;2023-10-31T04:25:57;9.76;111.28
19536;HTU21D;9913;51.168;4.124;2023-10-31T04:28:25;9.76;111.43
19536;HTU21D;9913;51.168;4.124;2023-10-31T04:30:53;9.76;111.70
19536;HTU21D;9913;51.168;4.124;2023-10-31T04:33:22;9.81;111.99
19536;HTU21D;9913;51.168;4.124;2023-10-31T04:35:50;9.83;111.58
19536;HTU21D;9913;51.168;4.124;2023-10-31T04:38:18;9.77;111.37
19536;HTU21D;9913;51.168;4.124;2023-10-31T04:40:48;9.80;111.47
19536;HTU21D;9913;51.168;4.124;2023-10-31T04:43:16;9.82;111.26
19536;HTU21D;9913;51.168;4.124;2023-10-31T04:45:44;9.86;111.23
19536;HTU21D;9913;51.168;4.124;2023-10-31T04:48:13;9.84;111.16
19536;HTU21D;9913;51.168;4.124;2023-10-31T04:50:41;9.74;111.34
19536;HTU21D;9913;51.168;4.124;2023-10-31T04:53:10;9.80;111.63
19536;HTU21D;9913;51.168;4.124;2023-10-31T04:55:38;9.80;111.64
19536;HTU21D;9913;51.168;4.124;2023-10-31T04:58:08;9.79;111.31
19536;HTU21D;9913;51.168;4.124;2023-10-31T05:00:36;9.80;111.68
19536;HTU21D;9913;51.168;4.124;2023-10-31T05:03:04;9.84;111.84
19536;HTU21D;9913;51.168;4.124;2023-10-31T05:05:33;9.80;111.67
19536;HTU21D;9913;51.168;4.124;2023-10-31T05:08:01;9.82;111.67
19536;HTU21D;9913;51.168;4.124;2023-10-31T05:10:30;9.77;111.78
19536;HTU21D;9913;51.168;4.124;2023-10-31T05:13:00;9.76;111.80
19536;HTU21D;9913;51.168;4.124;2023-10-31T05:15:30;9.74;111.99
19536;HTU21D;9913;51.168;4.124;2023-10-31T05:17:58;9.70;111.87
19536;HTU21D;9913;51.168;4.124;2023-10-31T05:20:27;9.70;112.00
19536;HTU21D;9913;51.168;4.124;2023-10-31T05:22:55;9.70;111.93
19536;HTU21D;9913;51.168;4.124;2023-10-31T05:25:23;9.68;111.99
19536;HTU21D;9913;51.168;4.124;2023-10-31T05:27:52;9.64;112.19
19536;HTU21D;9913;51.168;4.124;2023-10-31T05:30:20;9.59;112.07
19536;HTU21D;9913;51.168;4.124;2023-10-31T05:32:51;9.59;112.12
19536;HTU21D;9913;51.168;4.124;2023-10-31T05:35:19;9.53;111.82
19536;HTU21D;9913;51.168;4.124;2023-10-31T05:37:47;9.46;111.90
19536;HTU21D;9913;51.168;4.124;2023-10-31T05:40:16;9.42;111.84
19536;HTU21D;9913;51.168;4.124;2023-10-31T05:42:44;9.42;112.14
19536;HTU21D;9913;51.168;4.124;2023-10-31T05:45:13;9.32;111.84
19536;HTU21D;9913;51.168;4.124;2023-10-31T05:47:47;9.41;112.12
19536;HTU21D;9913;51.168;4.124;2023-10-31T05:50:17;9.36;111.95
19536;HTU21D;9913;51.168;4.124;2023-10-31T05:52:46;9.31;112.00
19536;HTU21D;9913;51.168;4.124;2023-10-31T05:55:14;9.30;112.28
19536;HTU21D;9913;51.168;4.124;2023-10-31T05:57:43;9.26;112.43
19536;HTU21D;9913;51.168;4.124;2023-10-31T06:00:12;9.22;112.58
19536;HTU21D;9913;51.168;4.124;2023-10-31T06:02:40;9.23;112.72
19536;HTU21D;9913;51.168;4.124;2023-10-31T06:05:09;9.18;112.69
19536;HTU21D;9913;51.168;4.124;2023-10-31T06:07:41;9.26;112.76
19536;HTU21D;9913;51.168;4.124;2023-10-31T06:10:10;9.24;112.61
19536;HTU21D;9913;51.168;4.124;2023-10-31T06:12:38;9.24;112.84
19536;HTU21D;9913;51.168;4.124;2023-10-31T06:15:08;9.26;112.93
19536;HTU21D;9913;51.168;4.124;2023-10-31T06:17:36;9.24;113.16
19536;HTU21D;9913;51.168;4.124;2023-10-31T06:20:07;9.23;113.42
19536;HTU21D;9913;51.168;4.124;2023-10-31T06:22:35;9.30;113.67
19536;HTU21D;9913;51.168;4.124;2023-10-31T06:25:06;9.40;113.64
19536;HTU21D;9913;51.168;4.124;2023-10-31T06:27:34;9.36;113.34
19536;HTU21D;9913;51.168;4.124;2023-10-31T06:30:03;9.41;113.29
19536;HTU21D;9913;51.168;4.124;2023-10-31T06:32:46;9.37;113.04
19536;HTU21D;9913;51.168;4.124;2023-10-31T06:35:15;9.41;113.09
19536;HTU21D;9913;51.168;4.124;2023-10-31T06:37:43;9.42;112.97
19536;HTU21D;9913;51.168;4.124;2023-10-31T06:40:13;9.45;112.85
19536;HTU21D;9913;51.168;4.124;2023-10-31T06:42:41;9.49;112.62
19536;HTU21D;9913;51.168;4.124;2023-10-31T06:45:10;9.42;112.61
19536;HTU21D;9913;51.168;4.124;2023-10-31T06:47:38;9.37;112.89
19536;HTU21D;9913;51.168;4.124;2023-10-31T06:50:08;9.34;113.47
19536;HTU21D;9913;51.168;4.124;2023-10-31T06:52:36;9.39;113.84
19536;HTU21D;9913;51.168;4.124;2023-10-31T06:55:05;9.45;113.86
19536;HTU21D;9913;51.168;4.124;2023-10-31T06:57:35;9.41;113.83
19536;HTU21D;9913;51.168;4.124;2023-10-31T07:00:04;9.48;113.54
19536;HTU21D;9913;51.168;4.124;2023-10-31T07:02:35;9.59;113.25
19536;HTU21D;9913;51.168;4.124;2023-10-31T07:05:04;9.62;113.13
19536;HTU21D;9913;51.168;4.124;2023-10-31T07:07:33;9.63;112.86
19536;HTU21D;9913;51.168;4.124;2023-10-31T07:10:01;9.68;112.78
19536;HTU21D;9913;51.168;4.124;2023-10-31T07:12:29;9.69;113.03
19536;HTU21D;9913;51.168;4.124;2023-10-31T07:14:59;9.68;113.05
19536;HTU21D;9913;51.168;4.124;2023-10-31T07:17:28;9.76;112.96
19536;HTU21D;9913;51.168;4.124;2023-10-31T07:19:56;9.74;113.25
19536;HTU21D;9913;51.168;4.124;2023-10-31T07:22:24;9.68;113.09
19536;HTU21D;9913;51.168;4.124;2023-10-31T07:24:53;9.69;113.40
19536;HTU21D;9913;51.168;4.124;2023-10-31T07:27:21;9.79;113.45
19536;HTU21D;9913;51.168;4.124;2023-10-31T07:29:49;9.89;113.39
19536;HTU21D;9913;51.168;4.124;2023-10-31T07:32:19;9.95;113.42
19536;HTU21D;9913;51.168;4.124;2023-10-31T07:34:47;9.91;113.29
19536;HTU21D;9913;51.168;4.124;2023-10-31T07:37:15;9.95;113.16
19536;HTU21D;9913;51.168;4.124;2023-10-31T07:39:44;10.00;113.00
19536;HTU21D;9913;51.168;4.124;2023-10-31T07:42:12;9.96;112.71
19536;HTU21D;9913;51.168;4.124;2023-10-31T07:44:40;9.95;112.56
19536;HTU21D;9913;51.168;4.124;2023-10-31T07:47:09;9.98;112.45
19536;HTU21D;9913;51.168;4.124;2023-10-31T07:49:38;9.91;112.51
19536;HTU21D;9913;51.168;4.124;2023-10-31T07:52:07;10.01;112.71
19536;HTU21D;9913;51.168;4.124;2023-10-31T07:54:38;9.96;112.29
19536;HTU21D;9913;51.168;4.124;2023-10-31T07:57:07;10.07;111.93
19536;HTU21D;9913;51.168;4.124;2023-10-31T07:59:35;10.13;111.61
19536;HTU21D;9913;51.168;4.124;2023-10-31T08:02:04;10.13;111.49
19536;HTU21D;9913;51.168;4.124;2023-10-31T08:04:32;10.01;111.52
19536;HTU21D;9913;51.168;4.124;2023-10-31T08:07:02;10.06;111.96
19536;HTU21D;9913;51.168;4.124;2023-10-31T08:09:30;10.05;111.84
19536;HTU21D;9913;51.168;4.124;2023-10-31T08:11:58;10.01;111.70
19536;HTU21D;9913;51.168;4.124;2023-10-31T08:14:27;10.13;111.45
19536;HTU21D;9913;51.168;4.124;2023-10-31T08:16:55;10.14;111.39
19536;HTU21D;9913;51.168;4.124;2023-10-31T08:19:23;10.18;111.06
19536;HTU21D;9913;51.168;4.124;2023-10-31T08:21:52;10.31;110.94
19536;HTU21D;9913;51.168;4.124;2023-10-31T08:24:24;10.48;110.58
19536;HTU21D;9913;51.168;4.124;2023-10-31T08:26:52;10.51;110.13
19536;HTU21D;9913;51.168;4.124;2023-10-31T08:29:20;10.45;109.73
19536;HTU21D;9913;51.168;4.124;2023-10-31T08:31:49;10.56;109.61
19536;HTU21D;9913;51.168;4.124;2023-10-31T08:34:17;10.46;109.24
19536;HTU21D;9913;51.168;4.124;2023-10-31T08:36:45;10.45;109.26
19536;HTU21D;9913;51.168;4.124;2023-10-31T08:39:14;10.45;109.23
19536;HTU21D;9913;51.168;4.124;2023-10-31T08:41:51;10.50;109.45
19536;HTU21D;9913;51.168;4.124;2023-10-31T08:44:22;10.56;109.65
19536;HTU21D;9913;51.168;4.124;2023-10-31T08:46:51;10.67;110.04
19536;HTU21D;9913;51.168;4.124;2023-10-31T08:49:19;10.70;109.83
19536;HTU21D;9913;51.168;4.124;2023-10-31T08:51:47;10.80;109.74
19536;HTU21D;9913;51.168;4.124;2023-10-31T08:54:16;10.78;109.76
19536;HTU21D;9913;51.168;4.124;2023-10-31T08:56:44;10.87;109.39
19536;HTU21D;9913;51.168;4.124;2023-10-31T08:59:14;10.86;109.02
19536;HTU21D;9913;51.168;4.124;2023-10-31T09:01:42;10.74;108.75
19536;HTU21D;9913;51.168;4.124;2023-10-31T09:04:10;10.85;109.04
19536;HTU21D;9913;51.168;4.124;2023-10-31T09:06:39;10.97;108.90
19536;HTU21D;9913;51.168;4.124;2023-10-31T09:09:07;11.15;108.52
19536;HTU21D;9913;51.168;4.124;2023-10-31T09:11:37;11.24;108.37
19536;HTU21D;9913;51.168;4.124;2023-10-31T09:14:05;11.19;108.27
19536;HTU21D;9913;51.168;4.124;2023-10-31T09:16:35;11.28;108.37
19536;HTU21D;9913;51.168;4.124;2023-10-31T09:19:03;11.30;108.42
19536;HTU21D;9913;51.168;4.124;2023-10-31T09:21:32;11.20;108.44
19536;HTU21D;9913;51.168;4.124;2023-10-31T09:24:00;11.36;108.84
19536;HTU21D;9913;51.168;4.124;2023-10-31T09:26:29;11.08;108.88
19536;HTU21D;9913;51.168;4.124;2023-10-31T09:28:58;11.17;109.02
19536;HTU21D;9913;51.168;4.124;2023-10-31T09:31:26;11.28;108.68
19536;HTU21D;9913;51.168;4.124;2023-10-31T09:33:56;11.20;108.41
19536;HTU21D;9913;51.168;4.124;2023-10-31T09:36:25;11.19;108.25
19536;HTU21D;9913;51.168;4.124;2023-10-31T09:38:53;11.31;108.38
19536;HTU21D;9913;51.168;4.124;2023-10-31T09:41:21;11.33;108.22
19536;HTU21D;9913;51.168;4.124;2023-10-31T09:43:50;11.33;108.26
19536;HTU21D;9913;51.168;4.124;2023-10-31T09:46:18;11.40;108.34
19536;HTU21D;9913;51.168;4.124;2023-10-31T09:48:47;11.39;108.30
19536;HTU21D;9913;51.168;4.124;2023-10-31T09:51:17;11.59;108.26
19536;HTU21D;9913;51.168;4.124;2023-10-31T09:53:47;11.33;108.47
19536;HTU21D;9913;51.168;4.124;2023-10-31T09:56:15;11.41;108.41
19536;HTU21D;9913;51.168;4.124;2023-10-31T09:58:44;11.38;108.58
19536;HTU21D;9913;51.168;4.124;2023-10-31T10:01:13;11.69;108.52
19536;HTU21D;9913;51.168;4.124;2023-10-31T10:03:42;11.64;108.06
19536;HTU21D;9913;51.168;4.124;2023-10-31T10:06:11;11.91;108.01
19536;HTU21D;9913;51.168;4.124;2023-10-31T10:08:41;11.82;108.12
19536;HTU21D;9913;51.168;4.124;2023-10-31T10:11:09;11.51;108.12
19536;HTU21D;9913;51.168;4.124;2023-10-31T10:13:37;11.70;108.25
19536;HTU21D;9913;51.168;4.124;2023-10-31T10:16:07;11.87;108.27
19536;HTU21D;9913;51.168;4.124;2023-10-31T10:18:36;11.52;107.97
19536;HTU21D;9913;51.168;4.124;2023-10-31T10:21:08;11.60;108.29
19536;HTU21D;9913;51.168;4.124;2023-10-31T10:23:37;11.63;107.99
19536;HTU21D;9913;51.168;4.124;2023-10-31T10:26:06;11.81;108.51
19536;HTU21D;9913;51.168;4.124;2023-10-31T10:28:35;12.00;108.16
19536;HTU21D;9913;51.168;4.124;2023-10-31T10:31:04;12.03;108.46
19536;HTU21D;9913;51.168;4.124;2023-10-31T10:33:34;12.05;108.00
19536;HTU21D;9913;51.168;4.124;2023-10-31T10:36:02;12.05;108.85
19536;HTU21D;9913;51.168;4.124;2023-10-31T10:38:32;11.77;108.78
19536;HTU21D;9913;51.168;4.124;2023-10-31T10:41:06;11.81;108.67
19536;HTU21D;9913;51.168;4.124;2023-10-31T10:43:37;11.64;108.60
19536;HTU21D;9913;51.168;4.124;2023-10-31T10:46:07;11.55;109.10
19536;HTU21D;9913;51.168;4.124;2023-10-31T10:48:39;11.49;109.11
19536;HTU21D;9913;51.168;4.124;2023-10-31T10:51:16;11.47;109.03
19536;HTU21D;9913;51.168;4.124;2023-10-31T10:53:49;11.29;108.85
19536;HTU21D;9913;51.168;4.124;2023-10-31T10:56:25;11.16;108.96
19536;HTU21D;9913;51.168;4.124;2023-10-31T10:58:58;11.28;109.09
19536;HTU21D;9913;51.168;4.124;2023-10-31T11:01:31;11.23;109.10
19536;HTU21D;9913;51.168;4.124;2023-10-31T11:03:59;11.01;109.07
19536;HTU21D;9913;51.168;4.124;2023-10-31T11:06:29;11.03;109.12
19536;HTU21D;9913;51.168;4.124;2023-10-31T11:08:59;11.11;109.29
19536;HTU21D;9913;51.168;4.124;2023-10-31T11:11:29;11.13;109.05
19536;HTU21D;9913;51.168;4.124;2023-10-31T11:14:03;11.29;108.98
19536;HTU21D;9913;51.168;4.124;2023-10-31T11:16:38;11.31;108.96
19536;HTU21D;9913;51.168;4.124;2023-10-31T11:19:08;11.30;109.06
19536;HTU21D;9913;51.168;4.124;2023-10-31T11:21:52;11.18;109.22
19536;HTU21D;9913;51.168;4.124;2023-10-31T11:24:21;11.26;109.18
19536;HTU21D;9913;51.168;4.124;2023-10-31T11:26:53;11.29;109.20
19536;HTU21D;9913;51.168;4.124;2023-10-31T11:29:21;11.40;109.04
19536;HTU21D;9913;51.168;4.124;2023-10-31T11:31:50;11.34;109.15
19536;HTU21D;9913;51.168;4.124;2023-10-31T11:34:20;11.39;109.09
19536;HTU21D;9913;51.168;4.124;2023-10-31T11:36:50;11.37;109.10
19536;HTU21D;9913;51.168;4.124;2023-10-31T11:39:19;11.31;108.91
19536;HTU21D;9913;51.168;4.124;2023-10-31T11:41:55;11.42;109.17
19536;HTU21D;9913;51.168;4.124;2023-10-31T11:44:26;11.38;109.14
19536;HTU21D;9913;51.168;4.124;2023-10-31T11:46:58;11.34;109.17
19536;HTU21D;9913;51.168;4.124;2023-10-31T11:49:46;11.16;109.27
19536;HTU21D;9913;51.168;4.124;2023-10-31T11:52:15;11.05;109.64
19536;HTU21D;9913;51.168;4.124;2023-10-31T11:54:44;10.99;109.74
19536;HTU21D;9913;51.168;4.124;2023-10-31T11:57:27;10.89;110.17
19536;HTU21D;9913;51.168;4.124;2023-10-31T11:59:55;10.93;109.87
19536;HTU21D;9913;51.168;4.124;2023-10-31T12:02:24;10.83;109.96
19536;HTU21D;9913;51.168;4.124;2023-10-31T12:05:06;10.83;110.36
19536;HTU21D;9913;51.168;4.124;2023-10-31T12:07:42;10.92;110.07
19536;HTU21D;9913;51.168;4.124;2023-10-31T12:10:10;10.98;110.20
19536;HTU21D;9913;51.168;4.124;2023-10-31T12:12:40;10.71;111.13
19536;HTU21D;9913;51.168;4.124;2023-10-31T12:15:09;10.70;112.25
19536;HTU21D;9913;51.168;4.124;2023-10-31T12:17:37;10.64;112.88
19536;HTU21D;9913;51.168;4.124;2023-10-31T12:20:07;10.71;113.61
19536;HTU21D;9913;51.168;4.124;2023-10-31T12:22:36;10.70;113.78
19536;HTU21D;9913;51.168;4.124;2023-10-31T12:25:07;10.86;114.38
19536;HTU21D;9913;51.168;4.124;2023-10-31T12:27:44;10.80;114.34
19536;HTU21D;9913;51.168;4.124;2023-10-31T12:30:16;10.84;114.57
19536;HTU21D;9913;51.168;4.124;2023-10-31T12:32:45;10.88;114.61
19536;HTU21D;9913;51.168;4.124;2023-10-31T12:35:16;10.85;114.25
19536;HTU21D;9913;51.168;4.124;2023-10-31T12:37:48;10.85;114.03
19536;HTU21D;9913;51.168;4.124;2023-10-31T12:40:19;10.94;113.99
19536;HTU21D;9913;51.168;4.124;2023-10-31T12:42:49;10.95;113.51
19536;HTU21D;9913;51.168;4.124;2023-10-31T12:45:18;11.01;113.67
19536;HTU21D;9913;51.168;4.124;2023-10-31T12:48:00;11.10;113.88
19536;HTU21D;9913;51.168;4.124;2023-10-31T12:50:29;11.29;114.25
19536;HTU21D;9913;51.168;4.124;2023-10-31T12:52:58;11.31;113.42
19536;HTU21D;9913;51.168;4.124;2023-10-31T12:55:27;11.10;112.42
19536;HTU21D;9913;51.168;4.124;2023-10-31T12:57:58;11.26;112.75
19536;HTU21D;9913;51.168;4.124;2023-10-31T13:00:31;11.26;113.12
19536;HTU21D;9913;51.168;4.124;2023-10-31T13:03:00;11.36;113.47
19536;HTU21D;9913;51.168;4.124;2023-10-31T13:05:30;11.28;112.64
19536;HTU21D;9913;51.168;4.124;2023-10-31T13:07:58;11.32;112.99
19536;HTU21D;9913;51.168;4.124;2023-10-31T13:10:28;11.36;112.80
19536;HTU21D;9913;51.168;4.124;2023-10-31T13:12:57;11.26;112.86
19536;HTU21D;9913;51.168;4.124;2023-10-31T13:15:25;11.22;112.91
19536;HTU21D;9913;51.168;4.124;2023-10-31T13:17:54;11.13;112.52
19536;HTU21D;9913;51.168;4.124;2023-10-31T13:20:22;11.16;112.68
19536;HTU21D;9913;51.168;4.124;2023-10-31T13:22:51;11.23;112.55
19536;HTU21D;9913;51.168;4.124;2023-10-31T13:25:19;11.37;112.87
19536;HTU21D;9913;51.168;4.124;2023-10-31T13:27:47;11.47;112.66
19536;HTU21D;9913;51.168;4.124;2023-10-31T13:30:19;11.33;111.94
19536;HTU21D;9913;51.168;4.124;2023-10-31T13:32:48;11.40;111.33
19536;HTU21D;9913;51.168;4.124;2023-10-31T13:35:16;11.43;111.64
19536;HTU21D;9913;51.168;4.124;2023-10-31T13:37:45;11.54;111.39
19536;HTU21D;9913;51.168;4.124;2023-10-31T13:40:13;11.66;110.76
19536;HTU21D;9913;51.168;4.124;2023-10-31T13:42:41;11.98;110.44
19536;HTU21D;9913;51.168;4.124;2023-10-31T13:45:09;12.06;109.65
19536;HTU21D;9913;51.168;4.124;2023-10-31T13:47:39;12.20;108.81
19536;HTU21D;9913;51.168;4.124;2023-10-31T13:50:08;12.43;108.78
19536;HTU21D;9913;51.168;4.124;2023-10-31T13:52:36;12.50;108.36
19536;HTU21D;9913;51.168;4.124;2023-10-31T13:55:06;12.65;108.50
19536;HTU21D;9913;51.168;4.124;2023-10-31T13:57:34;12.62;108.49
19536;HTU21D;9913;51.168;4.124;2023-10-31T14:00:03;12.96;107.89
19536;HTU21D;9913;51.168;4.124;2023-10-31T14:02:40;12.96;107.92
19536;HTU21D;9913;51.168;4.124;2023-10-31T14:05:08;13.09;107.83
19536;HTU21D;9913;51.168;4.124;2023-10-31T14:07:37;13.12;107.81
19536;HTU21D;9913;51.168;4.124;2023-10-31T14:10:06;13.10;107.46
19536;HTU21D;9913;51.168;4.124;2023-10-31T14:12:34;12.92;108.04
19536;HTU21D;9913;51.168;4.124;2023-10-31T14:15:03;12.74;108.12
19536;HTU21D;9913;51.168;4.124;2023-10-31T14:17:32;12.65;108.33
19536;HTU21D;9913;51.168;4.124;2023-10-31T14:20:02;12.47;108.30
19536;HTU21D;9913;51.168;4.124;2023-10-31T14:22:31;12.23;108.57
19536;HTU21D;9913;51.168;4.124;2023-10-31T14:24:59;12.33;108.87
19536;HTU21D;9913;51.168;4.124;2023-10-31T14:27:31;12.30;108.87
19536;HTU21D;9913;51.168;4.124;2023-10-31T14:29:59;12.19;108.95
19536;HTU21D;9913;51.168;4.124;2023-10-31T14:32:27;12.34;109.06
19536;HTU21D;9913;51.168;4.124;2023-10-31T14:34:56;12.29;108.81
19536;HTU21D;9913;51.168;4.124;2023-10-31T14:37:26;12.33;109.27
19536;HTU21D;9913;51.168;4.124;2023-10-31T14:39:55;12.29;108.75
19536;HTU21D;9913;51.168;4.124;2023-10-31T14:42:24;12.32;108.75
19536;HTU21D;9913;51.168;4.124;2023-10-31T14:44:52;12.25;108.62
19536;HTU21D;9913;51.168;4.124;2023-10-31T14:47:23;12.20;108.64
19536;HTU21D;9913;51.168;4.124;2023-10-31T14:49:52;12.08;109.17
19536;HTU21D;9913;51.168;4.124;2023-10-31T14:52:20;12.15;109.34
19536;HTU21D;9913;51.168;4.124;2023-10-31T14:54:50;12.08;109.34
19536;HTU21D;9913;51.168;4.124;2023-10-31T14:57:18;12.02;109.43
19536;HTU21D;9913;51.168;4.124;2023-10-31T14:59:47;11.92;109.45
19536;HTU21D;9913;51.168;4.124;2023-10-31T15:02:15;11.88;110.27
19536;HTU21D;9913;51.168;4.124;2023-10-31T15:04:44;11.96;110.30
19536;HTU21D;9913;51.168;4.124;2023-10-31T15:07:12;12.03;110.10
19536;HTU21D;9913;51.168;4.124;2023-10-31T15:09:40;11.85;110.25
19536;HTU21D;9913;51.168;4.124;2023-10-31T15:12:10;11.85;110.36
19536;HTU21D;9913;51.168;4.124;2023-10-31T15:14:40;11.88;110.71
19536;HTU21D;9913;51.168;4.124;2023-10-31T15:17:08;11.91;110.49
19536;HTU21D;9913;51.168;4.124;2023-10-31T15:19:36;11.97;110.20
19536;HTU21D;9913;51.168;4.124;2023-10-31T15:22:04;11.87;110.50
19536;HTU21D;9913;51.168;4.124;2023-10-31T15:24:33;11.84;110.62
19536;HTU21D;9913;51.168;4.124;2023-10-31T15:27:01;11.90;110.67
19536;HTU21D;9913;51.168;4.124;2023-10-31T15:29:31;11.96;110.69
19536;HTU21D;9913;51.168;4.124;2023-10-31T15:32:01;11.84;110.86